sensor_id;sensor_type;location;lat;lon;timestamp;P1;durP1;ratioP1;P2;durP2;ratioP2
30466;SDS011;17258;52.560;13.046;2023-03-11T00:04:51;5.78;;;5.38;;
30466;SDS011;17258;52.560;13.046;2023-03-11T00:14:51;6.17;;;5.23;;
30466;SDS011;17258;52.560;13.046;2023-03-11T00:24:52;5.50;;;5.10;;
30466;SDS011;17258;52.560;13.046;2023-03-11T00:34:53;5.87;;;5.40;;
30466;SDS011;17258;52.560;13.046;2023-03-11T00:44:53;6.20;;;5.70;;
30466;SDS011;17258;52.560;13.046;2023-03-11T00:54:54;6.50;;;5.13;;
30466;SDS011;17258;52.560;13.046;2023-03-11T01:04:55;4.00;;;3.65;;
30466;SDS011;17258;52.560;13.046;2023-03-11T01:14:55;3.07;;;2.87;;
30466;SDS011;17258;52.560;13.046;2023-03-11T01:24:56;2.00;;;1.90;;
30466;SDS011;17258;52.560;13.046;2023-03-11T01:34:57;1.80;;;1.30;;
30466;SDS011;17258;52.560;13.046;2023-03-11T01:44:57;0.80;;;0.80;;
30466;SDS011;17258;52.560;13.046;2023-03-11T01:54:58;0.87;;;0.87;;
30466;SDS011;17258;52.560;13.046;2023-03-11T02:04:59;1.13;;;0.88;;
30466;SDS011;17258;52.560;13.046;2023-03-11T02:15:02;1.00;;;1.00;;
30466;SDS011;17258;52.560;13.046;2023-03-11T02:25:08;1.27;;;1.27;;
30466;SDS011;17258;52.560;13.046;2023-03-11T02:35:26;2.00;;;1.80;;
30466;SDS011;17258;52.560;13.046;2023-03-11T02:45:27;1.77;;;1.65;;
30466;SDS011;17258;52.560;13.046;2023-03-11T02:55:29;1.90;;;1.75;;
30466;SDS011;17258;52.560;13.046;2023-03-11T03:05:30;2.10;;;2.00;;
30466;SDS011;17258;52.560;13.046;2023-03-11T03:15:31;2.55;;;2.25;;
30466;SDS011;17258;52.560;13.046;2023-03-11T03:25:31;2.60;;;2.50;;
30466;SDS011;17258;52.560;13.046;2023-03-11T03:35:32;2.15;;;2.05;;
30466;SDS011;17258;52.560;13.046;2023-03-11T03:45:33;2.08;;;1.98;;
30466;SDS011;17258;52.560;13.046;2023-03-11T03:55:33;2.00;;;1.90;;
30466;SDS011;17258;52.560;13.046;2023-03-11T04:05:34;1.77;;;1.43;;
30466;SDS011;17258;52.560;13.046;2023-03-11T04:15:38;1.27;;;1.27;;
30466;SDS011;17258;52.560;13.046;2023-03-11T04:25:39;1.10;;;1.10;;
30466;SDS011;17258;52.560;13.046;2023-03-11T04:35:40;3.00;;;0.87;;
30466;SDS011;17258;52.560;13.046;2023-03-11T04:45:40;0.90;;;0.90;;
30466;SDS011;17258;52.560;13.046;2023-03-11T04:55:41;2.10;;;1.27;;
30466;SDS011;17258;52.560;13.046;2023-03-11T05:05:42;1.50;;;1.40;;
30466;SDS011;17258;52.560;13.046;2023-03-11T05:15:44;1.00;;;1.00;;
30466;SDS011;17258;52.560;13.046;2023-03-11T05:25:45;1.25;;;1.25;;
30466;SDS011;17258;52.560;13.046;2023-03-11T05:35:46;1.10;;;1.10;;
30466;SDS011;17258;52.560;13.046;2023-03-11T05:45:46;1.23;;;1.20;;
30466;SDS011;17258;52.560;13.046;2023-03-11T05:55:57;2.53;;;2.20;;
30466;SDS011;17258;52.560;13.046;2023-03-11T06:05:58;2.67;;;1.92;;
30466;SDS011;17258;52.560;13.046;2023-03-11T06:15:59;2.37;;;2.10;;
30466;SDS011;17258;52.560;13.046;2023-03-11T06:26:01;2.67;;;2.30;;
30466;SDS011;17258;52.560;13.046;2023-03-11T06:36:04;2.30;;;2.10;;
30466;SDS011;17258;52.560;13.046;2023-03-11T06:46:10;2.42;;;2.22;;
30466;SDS011;17258;52.560;13.046;2023-03-11T06:56:14;2.88;;;2.67;;
30466;SDS011;17258;52.560;13.046;2023-03-11T07:06:16;5.13;;;3.37;;
30466;SDS011;17258;52.560;13.046;2023-03-11T07:16:21;3.40;;;2.47;;
30466;SDS011;17258;52.560;13.046;2023-03-11T07:26:25;2.47;;;2.25;;
30466;SDS011;17258;52.560;13.046;2023-03-11T07:36:27;3.80;;;3.28;;
30466;SDS011;17258;52.560;13.046;2023-03-11T07:46:29;3.45;;;3.15;;
30466;SDS011;17258;52.560;13.046;2023-03-11T07:56:32;4.13;;;3.35;;
30466;SDS011;17258;52.560;13.046;2023-03-11T08:06:34;3.90;;;3.38;;
30466;SDS011;17258;52.560;13.046;2023-03-11T08:16:37;3.03;;;2.70;;
30466;SDS011;17258;52.560;13.046;2023-03-11T08:26:39;2.60;;;2.40;;
30466;SDS011;17258;52.560;13.046;2023-03-11T08:36:40;2.42;;;2.33;;
30466;SDS011;17258;52.560;13.046;2023-03-11T08:46:41;2.60;;;2.40;;
30466;SDS011;17258;52.560;13.046;2023-03-11T08:56:42;2.97;;;2.78;;
30466;SDS011;17258;52.560;13.046;2023-03-11T09:06:43;4.20;;;3.60;;
30466;SDS011;17258;52.560;13.046;2023-03-11T09:16:43;4.43;;;3.78;;
30466;SDS011;17258;52.560;13.046;2023-03-11T09:26:44;3.53;;;3.13;;
30466;SDS011;17258;52.560;13.046;2023-03-11T09:36:45;4.23;;;3.40;;
30466;SDS011;17258;52.560;13.046;2023-03-11T09:57:11;4.53;;;4.10;;
30466;SDS011;17258;52.560;13.046;2023-03-11T10:07:22;5.50;;;5.00;;
30466;SDS011;17258;52.560;13.046;2023-03-11T10:17:44;4.53;;;4.13;;
30466;SDS011;17258;52.560;13.046;2023-03-11T10:28:08;5.68;;;5.18;;
30466;SDS011;17258;52.560;13.046;2023-03-11T10:38:17;7.75;;;4.78;;
30466;SDS011;17258;52.560;13.046;2023-03-11T10:48:25;5.70;;;5.07;;
30466;SDS011;17258;52.560;13.046;2023-03-11T10:58:27;5.00;;;4.60;;
30466;SDS011;17258;52.560;13.046;2023-03-11T11:08:29;5.25;;;4.75;;
30466;SDS011;17258;52.560;13.046;2023-03-11T11:18:35;8.15;;;7.35;;
30466;SDS011;17258;52.560;13.046;2023-03-11T11:28:44;7.20;;;6.45;;
30466;SDS011;17258;52.560;13.046;2023-03-11T11:38:45;8.40;;;6.70;;
30466;SDS011;17258;52.560;13.046;2023-03-11T11:48:51;7.23;;;6.53;;
30466;SDS011;17258;52.560;13.046;2023-03-11T11:59:21;7.13;;;6.43;;
30466;SDS011;17258;52.560;13.046;2023-03-11T12:20:02;6.43;;;5.75;;
30466;SDS011;17258;52.560;13.046;2023-03-11T12:30:15;6.25;;;5.50;;
30466;SDS011;17258;52.560;13.046;2023-03-11T12:50:41;6.15;;;5.63;;
30466;SDS011;17258;52.560;13.046;2023-03-11T13:11:24;5.95;;;5.43;;
30466;SDS011;17258;52.560;13.046;2023-03-11T13:52:31;4.90;;;4.43;;
30466;SDS011;17258;52.560;13.046;2023-03-11T14:02:35;4.97;;;4.53;;
30466;SDS011;17258;52.560;13.046;2023-03-11T14:12:37;4.00;;;3.70;;
30466;SDS011;17258;52.560;13.046;2023-03-11T14:22:38;3.60;;;3.33;;
30466;SDS011;17258;52.560;13.046;2023-03-11T14:32:39;3.00;;;2.70;;
30466;SDS011;17258;52.560;13.046;2023-03-11T14:42:40;3.53;;;3.03;;
30466;SDS011;17258;52.560;13.046;2023-03-11T14:52:46;3.95;;;2.42;;
30466;SDS011;17258;52.560;13.046;2023-03-11T15:03:12;3.38;;;3.05;;
30466;SDS011;17258;52.560;13.046;2023-03-11T15:13:23;3.15;;;2.78;;
30466;SDS011;17258;52.560;13.046;2023-03-11T15:23:24;3.00;;;2.80;;
30466;SDS011;17258;52.560;13.046;2023-03-11T15:33:30;2.90;;;2.07;;
30466;SDS011;17258;52.560;13.046;2023-03-11T15:43:33;1.95;;;1.80;;
30466;SDS011;17258;52.560;13.046;2023-03-11T15:53:47;3.40;;;2.28;;
30466;SDS011;17258;52.560;13.046;2023-03-11T16:03:47;2.33;;;1.90;;
30466;SDS011;17258;52.560;13.046;2023-03-11T16:13:48;2.27;;;1.90;;
30466;SDS011;17258;52.560;13.046;2023-03-11T16:23:49;2.73;;;1.90;;
30466;SDS011;17258;52.560;13.046;2023-03-11T16:33:50;2.08;;;1.65;;
30466;SDS011;17258;52.560;13.046;2023-03-11T16:43:50;1.23;;;1.13;;
30466;SDS011;17258;52.560;13.046;2023-03-11T16:53:52;2.65;;;1.88;;
30466;SDS011;17258;52.560;13.046;2023-03-11T17:03:52;6.67;;;2.03;;
30466;SDS011;17258;52.560;13.046;2023-03-11T17:13:53;1.87;;;1.67;;
30466;SDS011;17258;52.560;13.046;2023-03-11T17:23:54;1.92;;;1.25;;
30466;SDS011;17258;52.560;13.046;2023-03-11T17:33:55;1.63;;;1.50;;
30466;SDS011;17258;52.560;13.046;2023-03-11T17:43:58;2.08;;;1.70;;
30466;SDS011;17258;52.560;13.046;2023-03-11T17:53:58;1.90;;;1.77;;
30466;SDS011;17258;52.560;13.046;2023-03-11T18:04:00;1.95;;;1.23;;
30466;SDS011;17258;52.560;13.046;2023-03-11T18:14:00;2.73;;;1.97;;
30466;SDS011;17258;52.560;13.046;2023-03-11T18:24:01;3.23;;;2.70;;
30466;SDS011;17258;52.560;13.046;2023-03-11T18:34:02;2.38;;;2.10;;
30466;SDS011;17258;52.560;13.046;2023-03-11T18:44:06;1.55;;;1.40;;
30466;SDS011;17258;52.560;13.046;2023-03-11T18:54:06;1.47;;;1.37;;
30466;SDS011;17258;52.560;13.046;2023-03-11T19:04:08;4.97;;;2.47;;
30466;SDS011;17258;52.560;13.046;2023-03-11T19:14:09;6.65;;;2.10;;
30466;SDS011;17258;52.560;13.046;2023-03-11T19:24:10;2.03;;;1.60;;
30466;SDS011;17258;52.560;13.046;2023-03-11T19:34:11;2.72;;;1.52;;
30466;SDS011;17258;52.560;13.046;2023-03-11T19:44:12;7.63;;;1.88;;
30466;SDS011;17258;52.560;13.046;2023-03-11T19:54:12;2.50;;;1.63;;
30466;SDS011;17258;52.560;13.046;2023-03-11T20:04:15;13.20;;;1.60;;
30466;SDS011;17258;52.560;13.046;2023-03-11T20:14:15;4.30;;;2.10;;
30466;SDS011;17258;52.560;13.046;2023-03-11T20:24:16;2.50;;;1.83;;
30466;SDS011;17258;52.560;13.046;2023-03-11T20:34:16;3.97;;;1.80;;
30466;SDS011;17258;52.560;13.046;2023-03-11T20:44:17;1.48;;;1.38;;
30466;SDS011;17258;52.560;13.046;2023-03-11T20:54:18;2.67;;;1.67;;
30466;SDS011;17258;52.560;13.046;2023-03-11T21:04:18;1.30;;;1.03;;
30466;SDS011;17258;52.560;13.046;2023-03-11T21:14:20;9.07;;;1.73;;
30466;SDS011;17258;52.560;13.046;2023-03-11T21:24:20;1.60;;;1.40;;
30466;SDS011;17258;52.560;13.046;2023-03-11T21:34:21;1.20;;;1.10;;
30466;SDS011;17258;52.560;13.046;2023-03-11T21:44:22;0.90;;;0.90;;
30466;SDS011;17258;52.560;13.046;2023-03-11T21:54:22;3.40;;;1.30;;
30466;SDS011;17258;52.560;13.046;2023-03-11T22:04:23;1.30;;;1.20;;
30466;SDS011;17258;52.560;13.046;2023-03-11T22:14:23;1.67;;;1.23;;
30466;SDS011;17258;52.560;13.046;2023-03-11T22:24:24;4.57;;;2.00;;
30466;SDS011;17258;52.560;13.046;2023-03-11T22:34:25;2.30;;;1.20;;
30466;SDS011;17258;52.560;13.046;2023-03-11T22:44:25;1.60;;;1.50;;
30466;SDS011;17258;52.560;13.046;2023-03-11T22:54:26;2.22;;;1.55;;
30466;SDS011;17258;52.560;13.046;2023-03-11T23:04:27;1.27;;;1.15;;
30466;SDS011;17258;52.560;13.046;2023-03-11T23:14:28;1.55;;;1.20;;
30466;SDS011;17258;52.560;13.046;2023-03-11T23:24:29;1.80;;;1.40;;
30466;SDS011;17258;52.560;13.046;2023-03-11T23:34:30;2.70;;;1.53;;
30466;SDS011;17258;52.560;13.046;2023-03-11T23:44:30;1.83;;;1.60;;
30466;SDS011;17258;52.560;13.046;2023-03-11T23:54:31;1.10;;;1.10;;
